sensor_id;sensor_type;location;lat;lon;timestamp;temperature;humidity
12013;DHT22;6065;48.138;16.402;2024-02-21T00:00:14;8.70;99.90
12013;DHT22;6065;48.138;16.402;2024-02-21T00:02:42;8.70;99.90
12013;DHT22;6065;48.138;16.402;2024-02-21T00:05:09;8.70;99.90
12013;DHT22;6065;48.138;16.402;2024-02-21T00:07:36;8.70;99.90
12013;DHT22;6065;48.138;16.402;2024-02-21T00:10:03;8.70;99.90
12013;DHT22;6065;48.138;16.402;2024-02-21T00:12:31;8.70;99.90
12013;DHT22;6065;48.138;16.402;2024-02-21T00:14:58;8.70;99.90
12013;DHT22;6065;48.138;16.402;2024-02-21T00:17:25;8.70;99.90
12013;DHT22;6065;48.138;16.402;2024-02-21T00:19:52;8.70;99.90
12013;DHT22;6065;48.138;16.402;2024-02-21T00:22:19;8.70;99.90
12013;DHT22;6065;48.138;16.402;2024-02-21T00:24:45;8.70;99.90
12013;DHT22;6065;48.138;16.402;2024-02-21T00:27:12;8.70;99.90
12013;DHT22;6065;48.138;16.402;2024-02-21T00:29:40;8.70;99.90
12013;DHT22;6065;48.138;16.402;2024-02-21T00:32:07;8.70;99.90
12013;DHT22;6065;48.138;16.402;2024-02-21T00:34:34;8.60;99.90
12013;DHT22;6065;48.138;16.402;2024-02-21T00:37:01;8.70;99.90
12013;DHT22;6065;48.138;16.402;2024-02-21T00:39:27;8.70;99.90
12013;DHT22;6065;48.138;16.402;2024-02-21T00:41:54;8.60;99.90
12013;DHT22;6065;48.138;16.402;2024-02-21T00:44:21;8.60;99.90
12013;DHT22;6065;48.138;16.402;2024-02-21T00:46:49;8.60;99.90
12013;DHT22;6065;48.138;16.402;2024-02-21T00:49:16;8.60;99.90
12013;DHT22;6065;48.138;16.402;2024-02-21T00:51:43;8.60;99.90
12013;DHT22;6065;48.138;16.402;2024-02-21T00:54:09;8.60;99.90
12013;DHT22;6065;48.138;16.402;2024-02-21T00:56:36;8.60;99.90
12013;DHT22;6065;48.138;16.402;2024-02-21T00:59:03;8.70;99.90
12013;DHT22;6065;48.138;16.402;2024-02-21T01:01:30;8.60;99.90
12013;DHT22;6065;48.138;16.402;2024-02-21T01:03:58;8.70;99.90
12013;DHT22;6065;48.138;16.402;2024-02-21T01:06:25;8.70;99.90
12013;DHT22;6065;48.138;16.402;2024-02-21T01:08:52;8.60;99.90
12013;DHT22;6065;48.138;16.402;2024-02-21T01:11:19;8.60;99.90
12013;DHT22;6065;48.138;16.402;2024-02-21T01:13:46;8.70;99.90
12013;DHT22;6065;48.138;16.402;2024-02-21T01:16:12;8.70;99.90
12013;DHT22;6065;48.138;16.402;2024-02-21T01:18:39;8.60;99.90
12013;DHT22;6065;48.138;16.402;2024-02-21T01:21:08;8.60;99.90
12013;DHT22;6065;48.138;16.402;2024-02-21T01:23:35;8.60;99.90
12013;DHT22;6065;48.138;16.402;2024-02-21T01:26:02;8.70;99.90
12013;DHT22;6065;48.138;16.402;2024-02-21T01:28:29;8.70;99.90
12013;DHT22;6065;48.138;16.402;2024-02-21T01:30:56;8.70;99.90
12013;DHT22;6065;48.138;16.402;2024-02-21T01:33:23;8.70;99.90
12013;DHT22;6065;48.138;16.402;2024-02-21T01:35:49;8.70;99.90
12013;DHT22;6065;48.138;16.402;2024-02-21T01:38:17;8.60;99.90
12013;DHT22;6065;48.138;16.402;2024-02-21T01:40:44;8.70;99.90
12013;DHT22;6065;48.138;16.402;2024-02-21T01:43:15;8.60;99.90
12013;DHT22;6065;48.138;16.402;2024-02-21T01:45:42;8.60;99.90
12013;DHT22;6065;48.138;16.402;2024-02-21T01:48:09;8.60;99.90
12013;DHT22;6065;48.138;16.402;2024-02-21T01:50:36;8.60;99.90
12013;DHT22;6065;48.138;16.402;2024-02-21T01:53:03;8.60;99.90
12013;DHT22;6065;48.138;16.402;2024-02-21T01:55:31;8.60;99.90
12013;DHT22;6065;48.138;16.402;2024-02-21T01:57:58;8.60;99.90
12013;DHT22;6065;48.138;16.402;2024-02-21T02:00:25;8.60;99.90
12013;DHT22;6065;48.138;16.402;2024-02-21T02:02:52;8.60;99.90
12013;DHT22;6065;48.138;16.402;2024-02-21T02:05:19;8.60;99.90
12013;DHT22;6065;48.138;16.402;2024-02-21T02:07:46;8.60;99.90
12013;DHT22;6065;48.138;16.402;2024-02-21T02:10:13;8.50;99.90
12013;DHT22;6065;48.138;16.402;2024-02-21T02:12:41;8.50;99.90
12013;DHT22;6065;48.138;16.402;2024-02-21T02:15:08;8.60;99.90
12013;DHT22;6065;48.138;16.402;2024-02-21T02:17:35;8.60;99.90
12013;DHT22;6065;48.138;16.402;2024-02-21T02:20:02;8.60;99.90
12013;DHT22;6065;48.138;16.402;2024-02-21T02:22:30;8.50;99.90
12013;DHT22;6065;48.138;16.402;2024-02-21T02:24:59;8.50;99.90
12013;DHT22;6065;48.138;16.402;2024-02-21T02:27:26;8.50;99.90
12013;DHT22;6065;48.138;16.402;2024-02-21T02:29:53;8.60;99.90
12013;DHT22;6065;48.138;16.402;2024-02-21T02:32:20;8.60;99.90
12013;DHT22;6065;48.138;16.402;2024-02-21T02:34:47;8.60;99.90
12013;DHT22;6065;48.138;16.402;2024-02-21T02:37:13;8.60;99.90
12013;DHT22;6065;48.138;16.402;2024-02-21T02:39:40;8.50;99.90
12013;DHT22;6065;48.138;16.402;2024-02-21T02:42:08;8.50;99.90
12013;DHT22;6065;48.138;16.402;2024-02-21T02:44:35;8.50;99.90
12013;DHT22;6065;48.138;16.402;2024-02-21T02:47:02;8.60;99.90
12013;DHT22;6065;48.138;16.402;2024-02-21T02:49:29;8.50;99.90
12013;DHT22;6065;48.138;16.402;2024-02-21T02:51:56;8.50;99.90
12013;DHT22;6065;48.138;16.402;2024-02-21T02:54:23;8.50;99.90
12013;DHT22;6065;48.138;16.402;2024-02-21T02:56:50;8.50;99.90
12013;DHT22;6065;48.138;16.402;2024-02-21T02:59:19;8.50;99.90
12013;DHT22;6065;48.138;16.402;2024-02-21T03:01:46;8.50;99.90
12013;DHT22;6065;48.138;16.402;2024-02-21T03:04:13;8.50;99.90
12013;DHT22;6065;48.138;16.402;2024-02-21T03:06:39;8.50;99.90
12013;DHT22;6065;48.138;16.402;2024-02-21T03:09:06;8.50;99.90
12013;DHT22;6065;48.138;16.402;2024-02-21T03:11:34;8.50;99.90
12013;DHT22;6065;48.138;16.402;2024-02-21T03:14:00;8.60;99.90
12013;DHT22;6065;48.138;16.402;2024-02-21T03:16:29;8.50;99.90
12013;DHT22;6065;48.138;16.402;2024-02-21T03:18:55;8.50;99.90
12013;DHT22;6065;48.138;16.402;2024-02-21T03:21:22;8.50;99.90
12013;DHT22;6065;48.138;16.402;2024-02-21T03:23:49;8.50;99.90
12013;DHT22;6065;48.138;16.402;2024-02-21T03:26:16;8.50;99.90
12013;DHT22;6065;48.138;16.402;2024-02-21T03:28:42;8.50;99.90
12013;DHT22;6065;48.138;16.402;2024-02-21T03:31:10;8.50;99.90
12013;DHT22;6065;48.138;16.402;2024-02-21T03:33:39;8.50;99.90
12013;DHT22;6065;48.138;16.402;2024-02-21T03:36:06;8.50;99.90
12013;DHT22;6065;48.138;16.402;2024-02-21T03:38:32;8.50;99.90
12013;DHT22;6065;48.138;16.402;2024-02-21T03:40:59;8.50;99.90
12013;DHT22;6065;48.138;16.402;2024-02-21T03:43:26;8.50;99.90
12013;DHT22;6065;48.138;16.402;2024-02-21T03:45:53;8.50;99.90
12013;DHT22;6065;48.138;16.402;2024-02-21T03:48:19;8.50;99.90
12013;DHT22;6065;48.138;16.402;2024-02-21T03:50:48;8.50;99.90
12013;DHT22;6065;48.138;16.402;2024-02-21T03:53:14;8.50;99.90
12013;DHT22;6065;48.138;16.402;2024-02-21T03:55:41;8.50;99.90
12013;DHT22;6065;48.138;16.402;2024-02-21T03:58:08;8.50;99.90
12013;DHT22;6065;48.138;16.402;2024-02-21T04:00:35;8.50;99.90
12013;DHT22;6065;48.138;16.402;2024-02-21T04:03:02;8.50;99.90
12013;DHT22;6065;48.138;16.402;2024-02-21T04:05:29;8.50;99.90
12013;DHT22;6065;48.138;16.402;2024-02-21T04:07:57;8.50;99.90
12013;DHT22;6065;48.138;16.402;2024-02-21T04:10:24;8.40;99.90
12013;DHT22;6065;48.138;16.402;2024-02-21T04:12:50;8.40;99.90
12013;DHT22;6065;48.138;16.402;2024-02-21T04:15:17;8.40;99.90
12013;DHT22;6065;48.138;16.402;2024-02-21T04:17:44;8.40;99.90
12013;DHT22;6065;48.138;16.402;2024-02-21T04:20:13;8.40;99.90
12013;DHT22;6065;48.138;16.402;2024-02-21T04:22:40;8.40;99.90
12013;DHT22;6065;48.138;16.402;2024-02-21T04:25:08;8.30;99.90
12013;DHT22;6065;48.138;16.402;2024-02-21T04:27:36;8.30;99.90
12013;DHT22;6065;48.138;16.402;2024-02-21T04:30:03;8.30;99.90
12013;DHT22;6065;48.138;16.402;2024-02-21T04:32:30;8.30;99.90
12013;DHT22;6065;48.138;16.402;2024-02-21T04:34:57;8.30;99.90
12013;DHT22;6065;48.138;16.402;2024-02-21T04:37:25;8.30;99.90
12013;DHT22;6065;48.138;16.402;2024-02-21T04:39:52;8.30;99.90
12013;DHT22;6065;48.138;16.402;2024-02-21T04:42:20;8.30;99.90
12013;DHT22;6065;48.138;16.402;2024-02-21T04:44:47;8.30;99.90
12013;DHT22;6065;48.138;16.402;2024-02-21T04:47:14;8.30;99.90
12013;DHT22;6065;48.138;16.402;2024-02-21T04:49:40;8.30;99.90
12013;DHT22;6065;48.138;16.402;2024-02-21T04:52:07;8.30;99.90
12013;DHT22;6065;48.138;16.402;2024-02-21T04:54:34;8.30;99.90
12013;DHT22;6065;48.138;16.402;2024-02-21T04:57:01;8.30;99.90
12013;DHT22;6065;48.138;16.402;2024-02-21T04:59:29;8.30;99.90
12013;DHT22;6065;48.138;16.402;2024-02-21T05:01:56;8.30;99.90
12013;DHT22;6065;48.138;16.402;2024-02-21T05:04:24;8.30;99.90
12013;DHT22;6065;48.138;16.402;2024-02-21T05:06:50;8.30;99.90
12013;DHT22;6065;48.138;16.402;2024-02-21T05:09:17;8.30;99.90
12013;DHT22;6065;48.138;16.402;2024-02-21T05:11:44;8.30;99.90
12013;DHT22;6065;48.138;16.402;2024-02-21T05:14:11;8.30;99.90
12013;DHT22;6065;48.138;16.402;2024-02-21T05:16:39;8.30;99.90
12013;DHT22;6065;48.138;16.402;2024-02-21T05:19:06;8.30;99.90
12013;DHT22;6065;48.138;16.402;2024-02-21T05:21:33;8.30;99.90
12013;DHT22;6065;48.138;16.402;2024-02-21T05:24:00;8.30;99.90
12013;DHT22;6065;48.138;16.402;2024-02-21T05:26:27;8.30;99.90
12013;DHT22;6065;48.138;16.402;2024-02-21T05:28:54;8.30;99.90
12013;DHT22;6065;48.138;16.402;2024-02-21T05:31:21;8.30;99.90
12013;DHT22;6065;48.138;16.402;2024-02-21T05:33:49;8.30;99.90
12013;DHT22;6065;48.138;16.402;2024-02-21T05:36:16;8.30;99.90
12013;DHT22;6065;48.138;16.402;2024-02-21T05:38:43;8.30;99.90
12013;DHT22;6065;48.138;16.402;2024-02-21T05:41:09;8.30;99.90
12013;DHT22;6065;48.138;16.402;2024-02-21T05:43:36;8.30;99.90
12013;DHT22;6065;48.138;16.402;2024-02-21T05:46:03;8.30;99.90
12013;DHT22;6065;48.138;16.402;2024-02-21T05:48:30;8.30;99.90
12013;DHT22;6065;48.138;16.402;2024-02-21T05:50:58;8.30;99.90
12013;DHT22;6065;48.138;16.402;2024-02-21T05:53:28;8.30;99.90
12013;DHT22;6065;48.138;16.402;2024-02-21T05:55:54;8.30;99.90
12013;DHT22;6065;48.138;16.402;2024-02-21T05:58:21;8.30;99.90
12013;DHT22;6065;48.138;16.402;2024-02-21T06:00:48;8.30;99.90
12013;DHT22;6065;48.138;16.402;2024-02-21T06:03:15;8.30;99.90
12013;DHT22;6065;48.138;16.402;2024-02-21T06:05:41;8.30;99.90
12013;DHT22;6065;48.138;16.402;2024-02-21T06:08:10;8.30;99.90
12013;DHT22;6065;48.138;16.402;2024-02-21T06:10:37;8.30;99.90
12013;DHT22;6065;48.138;16.402;2024-02-21T06:13:03;8.30;99.90
12013;DHT22;6065;48.138;16.402;2024-02-21T06:15:30;8.30;99.90
12013;DHT22;6065;48.138;16.402;2024-02-21T06:17:57;8.30;99.90
12013;DHT22;6065;48.138;16.402;2024-02-21T06:20:24;8.30;99.90
12013;DHT22;6065;48.138;16.402;2024-02-21T06:22:50;8.30;99.90
12013;DHT22;6065;48.138;16.402;2024-02-21T06:25:19;8.30;99.90
12013;DHT22;6065;48.138;16.402;2024-02-21T06:27:45;8.30;99.90
12013;DHT22;6065;48.138;16.402;2024-02-21T06:30:12;8.30;99.90
12013;DHT22;6065;48.138;16.402;2024-02-21T06:32:39;8.30;99.90
12013;DHT22;6065;48.138;16.402;2024-02-21T06:35:06;8.30;99.90
12013;DHT22;6065;48.138;16.402;2024-02-21T06:37:33;8.30;99.90
12013;DHT22;6065;48.138;16.402;2024-02-21T06:39:59;8.30;99.90
12013;DHT22;6065;48.138;16.402;2024-02-21T06:42:27;8.40;99.90
12013;DHT22;6065;48.138;16.402;2024-02-21T06:44:54;8.40;99.90
12013;DHT22;6065;48.138;16.402;2024-02-21T06:47:21;8.40;99.90
12013;DHT22;6065;48.138;16.402;2024-02-21T06:49:48;8.40;99.90
12013;DHT22;6065;48.138;16.402;2024-02-21T06:52:17;8.40;99.90
12013;DHT22;6065;48.138;16.402;2024-02-21T06:54:45;8.40;99.90
12013;DHT22;6065;48.138;16.402;2024-02-21T06:57:12;8.40;99.90
12013;DHT22;6065;48.138;16.402;2024-02-21T06:59:40;8.50;99.90
12013;DHT22;6065;48.138;16.402;2024-02-21T07:02:07;8.50;99.90
12013;DHT22;6065;48.138;16.402;2024-02-21T07:04:34;8.50;99.90
12013;DHT22;6065;48.138;16.402;2024-02-21T07:07:01;8.50;99.90
12013;DHT22;6065;48.138;16.402;2024-02-21T07:09:28;8.50;99.90
12013;DHT22;6065;48.138;16.402;2024-02-21T07:11:57;8.50;99.90
12013;DHT22;6065;48.138;16.402;2024-02-21T07:14:24;8.50;99.90
12013;DHT22;6065;48.138;16.402;2024-02-21T07:16:52;8.50;99.90
12013;DHT22;6065;48.138;16.402;2024-02-21T07:19:18;8.50;99.90
12013;DHT22;6065;48.138;16.402;2024-02-21T07:21:45;8.60;99.90
12013;DHT22;6065;48.138;16.402;2024-02-21T07:24:13;8.50;99.90
12013;DHT22;6065;48.138;16.402;2024-02-21T07:26:41;8.50;99.90
12013;DHT22;6065;48.138;16.402;2024-02-21T07:29:08;8.50;99.90
12013;DHT22;6065;48.138;16.402;2024-02-21T07:31:38;8.50;99.90
12013;DHT22;6065;48.138;16.402;2024-02-21T07:34:06;8.50;99.90
12013;DHT22;6065;48.138;16.402;2024-02-21T07:36:33;8.60;99.90
12013;DHT22;6065;48.138;16.402;2024-02-21T07:39:00;8.60;99.90
12013;DHT22;6065;48.138;16.402;2024-02-21T07:41:26;8.60;99.90
12013;DHT22;6065;48.138;16.402;2024-02-21T07:43:54;8.60;99.90
12013;DHT22;6065;48.138;16.402;2024-02-21T07:46:20;8.60;99.90
12013;DHT22;6065;48.138;16.402;2024-02-21T07:48:47;8.70;99.90
12013;DHT22;6065;48.138;16.402;2024-02-21T07:51:15;8.70;99.90
12013;DHT22;6065;48.138;16.402;2024-02-21T07:53:43;8.70;99.90
12013;DHT22;6065;48.138;16.402;2024-02-21T07:56:10;8.80;99.90
12013;DHT22;6065;48.138;16.402;2024-02-21T07:58:37;8.80;99.90
12013;DHT22;6065;48.138;16.402;2024-02-21T08:01:04;8.80;99.90
12013;DHT22;6065;48.138;16.402;2024-02-21T08:03:31;8.80;99.90
12013;DHT22;6065;48.138;16.402;2024-02-21T08:05:58;8.90;99.90
12013;DHT22;6065;48.138;16.402;2024-02-21T08:08:26;8.90;99.90
12013;DHT22;6065;48.138;16.402;2024-02-21T08:10:52;8.90;99.90
12013;DHT22;6065;48.138;16.402;2024-02-21T08:13:19;8.90;99.90
12013;DHT22;6065;48.138;16.402;2024-02-21T08:15:46;9.00;99.90
12013;DHT22;6065;48.138;16.402;2024-02-21T08:18:13;9.00;99.90
12013;DHT22;6065;48.138;16.402;2024-02-21T08:20:40;9.10;99.90
12013;DHT22;6065;48.138;16.402;2024-02-21T08:23:07;9.20;99.90
12013;DHT22;6065;48.138;16.402;2024-02-21T08:25:35;9.20;99.90
12013;DHT22;6065;48.138;16.402;2024-02-21T08:28:02;9.20;99.90
12013;DHT22;6065;48.138;16.402;2024-02-21T08:30:29;9.30;99.90
12013;DHT22;6065;48.138;16.402;2024-02-21T08:32:56;9.40;99.90
12013;DHT22;6065;48.138;16.402;2024-02-21T08:35:22;9.50;99.90
12013;DHT22;6065;48.138;16.402;2024-02-21T08:37:49;9.60;99.90
12013;DHT22;6065;48.138;16.402;2024-02-21T08:40:16;9.60;99.90
12013;DHT22;6065;48.138;16.402;2024-02-21T08:42:47;9.70;99.90
12013;DHT22;6065;48.138;16.402;2024-02-21T08:45:14;9.80;99.90
12013;DHT22;6065;48.138;16.402;2024-02-21T08:47:41;9.90;99.90
12013;DHT22;6065;48.138;16.402;2024-02-21T08:50:08;10.00;99.90
12013;DHT22;6065;48.138;16.402;2024-02-21T08:52:36;10.20;99.60
12013;DHT22;6065;48.138;16.402;2024-02-21T08:55:03;10.20;99.80
12013;DHT22;6065;48.138;16.402;2024-02-21T08:57:30;10.30;99.70
12013;DHT22;6065;48.138;16.402;2024-02-21T09:00:04;10.30;99.70
12013;DHT22;6065;48.138;16.402;2024-02-21T09:02:35;10.30;99.60
12013;DHT22;6065;48.138;16.402;2024-02-21T09:05:03;10.30;99.20
12013;DHT22;6065;48.138;16.402;2024-02-21T09:07:31;10.30;99.30
12013;DHT22;6065;48.138;16.402;2024-02-21T09:09:58;10.30;98.90
12013;DHT22;6065;48.138;16.402;2024-02-21T09:12:25;10.30;98.90
12013;DHT22;6065;48.138;16.402;2024-02-21T09:14:51;10.30;99.10
12013;DHT22;6065;48.138;16.402;2024-02-21T09:17:20;10.20;99.30
12013;DHT22;6065;48.138;16.402;2024-02-21T09:19:47;10.20;99.20
12013;DHT22;6065;48.138;16.402;2024-02-21T09:22:13;10.20;98.90
12013;DHT22;6065;48.138;16.402;2024-02-21T09:24:40;10.20;99.10
12013;DHT22;6065;48.138;16.402;2024-02-21T09:27:07;10.20;99.10
12013;DHT22;6065;48.138;16.402;2024-02-21T09:29:34;10.20;99.20
12013;DHT22;6065;48.138;16.402;2024-02-21T09:32:01;10.30;99.10
12013;DHT22;6065;48.138;16.402;2024-02-21T09:34:30;10.40;99.30
12013;DHT22;6065;48.138;16.402;2024-02-21T09:36:57;10.40;99.30
12013;DHT22;6065;48.138;16.402;2024-02-21T09:39:24;10.40;99.10
12013;DHT22;6065;48.138;16.402;2024-02-21T09:41:53;10.50;99.30
12013;DHT22;6065;48.138;16.402;2024-02-21T09:44:21;10.50;99.20
12013;DHT22;6065;48.138;16.402;2024-02-21T09:46:51;10.50;98.90
12013;DHT22;6065;48.138;16.402;2024-02-21T09:49:21;10.50;99.00
12013;DHT22;6065;48.138;16.402;2024-02-21T09:51:55;10.50;99.10
12013;DHT22;6065;48.138;16.402;2024-02-21T09:54:24;10.50;99.10
12013;DHT22;6065;48.138;16.402;2024-02-21T09:56:50;10.50;99.20
12013;DHT22;6065;48.138;16.402;2024-02-21T09:59:17;10.60;99.20
12013;DHT22;6065;48.138;16.402;2024-02-21T10:01:44;10.70;99.20
12013;DHT22;6065;48.138;16.402;2024-02-21T10:04:12;10.70;98.90
12013;DHT22;6065;48.138;16.402;2024-02-21T10:06:39;10.80;98.90
12013;DHT22;6065;48.138;16.402;2024-02-21T10:09:07;10.90;98.40
12013;DHT22;6065;48.138;16.402;2024-02-21T10:11:34;11.00;98.50
12013;DHT22;6065;48.138;16.402;2024-02-21T10:14:04;11.00;98.60
12013;DHT22;6065;48.138;16.402;2024-02-21T10:16:31;11.10;98.40
12013;DHT22;6065;48.138;16.402;2024-02-21T10:18:58;11.10;98.20
12013;DHT22;6065;48.138;16.402;2024-02-21T10:21:25;11.20;98.10
12013;DHT22;6065;48.138;16.402;2024-02-21T10:23:52;11.20;97.80
12013;DHT22;6065;48.138;16.402;2024-02-21T10:26:20;11.30;98.20
12013;DHT22;6065;48.138;16.402;2024-02-21T10:28:47;11.30;97.70
12013;DHT22;6065;48.138;16.402;2024-02-21T10:31:23;11.40;97.40
12013;DHT22;6065;48.138;16.402;2024-02-21T10:33:53;11.50;97.70
12013;DHT22;6065;48.138;16.402;2024-02-21T10:36:20;11.70;97.90
12013;DHT22;6065;48.138;16.402;2024-02-21T10:38:47;11.80;97.60
12013;DHT22;6065;48.138;16.402;2024-02-21T10:41:14;11.80;97.50
12013;DHT22;6065;48.138;16.402;2024-02-21T10:43:42;11.90;97.50
12013;DHT22;6065;48.138;16.402;2024-02-21T10:46:12;11.90;97.30
12013;DHT22;6065;48.138;16.402;2024-02-21T10:48:43;12.00;97.10
12013;DHT22;6065;48.138;16.402;2024-02-21T10:51:14;12.00;96.90
12013;DHT22;6065;48.138;16.402;2024-02-21T10:53:44;11.90;97.10
12013;DHT22;6065;48.138;16.402;2024-02-21T10:56:15;11.90;97.30
12013;DHT22;6065;48.138;16.402;2024-02-21T10:58:44;11.90;97.40
12013;DHT22;6065;48.138;16.402;2024-02-21T11:01:11;11.90;97.40
12013;DHT22;6065;48.138;16.402;2024-02-21T11:03:40;12.00;97.10
12013;DHT22;6065;48.138;16.402;2024-02-21T11:06:08;12.00;97.20
12013;DHT22;6065;48.138;16.402;2024-02-21T11:08:35;12.00;96.50
12013;DHT22;6065;48.138;16.402;2024-02-21T11:11:02;12.00;96.40
12013;DHT22;6065;48.138;16.402;2024-02-21T11:13:31;12.00;96.30
12013;DHT22;6065;48.138;16.402;2024-02-21T11:16:07;12.00;96.10
12013;DHT22;6065;48.138;16.402;2024-02-21T11:18:34;11.90;96.30
12013;DHT22;6065;48.138;16.402;2024-02-21T11:21:01;11.90;96.30
12013;DHT22;6065;48.138;16.402;2024-02-21T11:23:28;11.90;96.40
12013;DHT22;6065;48.138;16.402;2024-02-21T11:26:03;11.80;96.30
12013;DHT22;6065;48.138;16.402;2024-02-21T11:28:30;11.80;96.30
12013;DHT22;6065;48.138;16.402;2024-02-21T11:31:04;11.80;96.40
12013;DHT22;6065;48.138;16.402;2024-02-21T11:33:34;11.70;96.60
12013;DHT22;6065;48.138;16.402;2024-02-21T11:36:01;11.70;96.90
12013;DHT22;6065;48.138;16.402;2024-02-21T11:38:29;11.70;97.00
12013;DHT22;6065;48.138;16.402;2024-02-21T11:40:56;11.70;97.30
12013;DHT22;6065;48.138;16.402;2024-02-21T11:43:23;11.60;96.70
12013;DHT22;6065;48.138;16.402;2024-02-21T11:45:50;11.60;96.50
12013;DHT22;6065;48.138;16.402;2024-02-21T11:48:17;11.60;96.30
12013;DHT22;6065;48.138;16.402;2024-02-21T11:50:53;11.60;96.30
12013;DHT22;6065;48.138;16.402;2024-02-21T11:53:21;11.60;96.30
12013;DHT22;6065;48.138;16.402;2024-02-21T11:55:48;11.60;96.40
12013;DHT22;6065;48.138;16.402;2024-02-21T11:58:16;11.60;96.50
12013;DHT22;6065;48.138;16.402;2024-02-21T12:00:42;11.60;96.10
12013;DHT22;6065;48.138;16.402;2024-02-21T12:03:09;11.60;96.00
12013;DHT22;6065;48.138;16.402;2024-02-21T12:05:36;11.60;95.80
12013;DHT22;6065;48.138;16.402;2024-02-21T12:08:06;11.60;95.80
12013;DHT22;6065;48.138;16.402;2024-02-21T12:10:33;11.60;95.80
12013;DHT22;6065;48.138;16.402;2024-02-21T12:13:07;11.60;95.40
12013;DHT22;6065;48.138;16.402;2024-02-21T12:15:34;11.60;95.80
12013;DHT22;6065;48.138;16.402;2024-02-21T12:18:01;11.60;95.70
12013;DHT22;6065;48.138;16.402;2024-02-21T12:20:28;11.60;95.80
12013;DHT22;6065;48.138;16.402;2024-02-21T12:22:56;11.60;95.30
12013;DHT22;6065;48.138;16.402;2024-02-21T12:25:25;11.60;95.30
12013;DHT22;6065;48.138;16.402;2024-02-21T12:27:53;11.60;95.40
12013;DHT22;6065;48.138;16.402;2024-02-21T12:30:19;11.60;95.40
12013;DHT22;6065;48.138;16.402;2024-02-21T12:32:46;11.60;95.50
12013;DHT22;6065;48.138;16.402;2024-02-21T12:35:13;11.50;95.30
12013;DHT22;6065;48.138;16.402;2024-02-21T12:37:40;11.50;95.40
12013;DHT22;6065;48.138;16.402;2024-02-21T12:40:08;11.50;95.20
12013;DHT22;6065;48.138;16.402;2024-02-21T12:42:37;11.50;95.30
12013;DHT22;6065;48.138;16.402;2024-02-21T12:45:04;11.50;95.20
12013;DHT22;6065;48.138;16.402;2024-02-21T12:47:31;11.50;95.40
12013;DHT22;6065;48.138;16.402;2024-02-21T12:49:58;11.50;95.60
12013;DHT22;6065;48.138;16.402;2024-02-21T12:52:25;11.50;95.80
12013;DHT22;6065;48.138;16.402;2024-02-21T12:54:51;11.50;95.70
12013;DHT22;6065;48.138;16.402;2024-02-21T12:57:21;11.50;95.70
12013;DHT22;6065;48.138;16.402;2024-02-21T12:59:50;11.50;95.60
12013;DHT22;6065;48.138;16.402;2024-02-21T13:02:16;11.50;95.30
12013;DHT22;6065;48.138;16.402;2024-02-21T13:04:43;11.50;95.40
12013;DHT22;6065;48.138;16.402;2024-02-21T13:07:10;11.50;95.60
12013;DHT22;6065;48.138;16.402;2024-02-21T13:09:37;11.50;95.60
12013;DHT22;6065;48.138;16.402;2024-02-21T13:12:04;11.50;95.70
12013;DHT22;6065;48.138;16.402;2024-02-21T13:14:30;11.50;95.60
12013;DHT22;6065;48.138;16.402;2024-02-21T13:16:59;11.50;95.70
12013;DHT22;6065;48.138;16.402;2024-02-21T13:19:26;11.60;95.80
12013;DHT22;6065;48.138;16.402;2024-02-21T13:21:53;11.60;95.80
12013;DHT22;6065;48.138;16.402;2024-02-21T13:24:20;11.60;95.70
12013;DHT22;6065;48.138;16.402;2024-02-21T13:26:46;11.60;95.80
12013;DHT22;6065;48.138;16.402;2024-02-21T13:29:13;11.70;95.70
12013;DHT22;6065;48.138;16.402;2024-02-21T13:31:40;11.70;95.40
12013;DHT22;6065;48.138;16.402;2024-02-21T13:34:08;11.70;95.30
12013;DHT22;6065;48.138;16.402;2024-02-21T13:36:35;11.80;95.30
12013;DHT22;6065;48.138;16.402;2024-02-21T13:39:02;11.90;95.30
12013;DHT22;6065;48.138;16.402;2024-02-21T13:41:30;12.00;95.30
12013;DHT22;6065;48.138;16.402;2024-02-21T13:43:57;12.00;95.30
12013;DHT22;6065;48.138;16.402;2024-02-21T13:46:25;12.00;95.50
12013;DHT22;6065;48.138;16.402;2024-02-21T13:48:52;12.00;95.40
12013;DHT22;6065;48.138;16.402;2024-02-21T13:51:22;12.10;95.40
12013;DHT22;6065;48.138;16.402;2024-02-21T13:53:49;12.10;95.30
12013;DHT22;6065;48.138;16.402;2024-02-21T13:56:16;12.10;95.30
12013;DHT22;6065;48.138;16.402;2024-02-21T13:58:44;12.10;95.20
12013;DHT22;6065;48.138;16.402;2024-02-21T14:01:10;12.00;95.00
12013;DHT22;6065;48.138;16.402;2024-02-21T14:03:37;12.00;94.90
12013;DHT22;6065;48.138;16.402;2024-02-21T14:06:04;12.00;95.00
12013;DHT22;6065;48.138;16.402;2024-02-21T14:08:32;12.00;95.00
12013;DHT22;6065;48.138;16.402;2024-02-21T14:10:59;12.10;95.10
12013;DHT22;6065;48.138;16.402;2024-02-21T14:13:26;12.10;95.00
12013;DHT22;6065;48.138;16.402;2024-02-21T14:15:53;12.10;95.00
12013;DHT22;6065;48.138;16.402;2024-02-21T14:18:20;12.10;95.00
12013;DHT22;6065;48.138;16.402;2024-02-21T14:20:47;12.10;95.00
12013;DHT22;6065;48.138;16.402;2024-02-21T14:23:14;12.10;94.90
12013;DHT22;6065;48.138;16.402;2024-02-21T14:25:42;12.10;94.80
12013;DHT22;6065;48.138;16.402;2024-02-21T14:28:09;12.10;94.90
12013;DHT22;6065;48.138;16.402;2024-02-21T14:30:35;12.10;95.00
12013;DHT22;6065;48.138;16.402;2024-02-21T14:33:02;12.10;95.00
12013;DHT22;6065;48.138;16.402;2024-02-21T14:35:29;12.10;94.70
12013;DHT22;6065;48.138;16.402;2024-02-21T14:37:56;12.10;94.70
12013;DHT22;6065;48.138;16.402;2024-02-21T14:40:23;12.10;94.60
12013;DHT22;6065;48.138;16.402;2024-02-21T14:42:51;12.10;94.90
12013;DHT22;6065;48.138;16.402;2024-02-21T14:45:18;12.10;94.80
12013;DHT22;6065;48.138;16.402;2024-02-21T14:47:45;12.10;95.00
12013;DHT22;6065;48.138;16.402;2024-02-21T14:50:12;12.10;95.00
12013;DHT22;6065;48.138;16.402;2024-02-21T14:52:38;12.10;95.10
12013;DHT22;6065;48.138;16.402;2024-02-21T14:55:05;12.10;95.50
12013;DHT22;6065;48.138;16.402;2024-02-21T14:57:32;12.10;95.70
12013;DHT22;6065;48.138;16.402;2024-02-21T15:00:00;12.10;95.60
12013;DHT22;6065;48.138;16.402;2024-02-21T15:02:32;12.10;95.60
12013;DHT22;6065;48.138;16.402;2024-02-21T15:05:00;12.10;95.60
12013;DHT22;6065;48.138;16.402;2024-02-21T15:07:28;12.10;95.50
12013;DHT22;6065;48.138;16.402;2024-02-21T15:09:55;12.10;95.70
12013;DHT22;6065;48.138;16.402;2024-02-21T15:12:22;12.10;95.80
12013;DHT22;6065;48.138;16.402;2024-02-21T15:14:49;12.10;95.70
12013;DHT22;6065;48.138;16.402;2024-02-21T15:17:18;12.00;95.70
12013;DHT22;6065;48.138;16.402;2024-02-21T15:19:44;12.00;95.70
12013;DHT22;6065;48.138;16.402;2024-02-21T15:22:12;12.00;95.70
12013;DHT22;6065;48.138;16.402;2024-02-21T15:24:40;12.00;95.70
12013;DHT22;6065;48.138;16.402;2024-02-21T15:27:07;12.00;95.80
12013;DHT22;6065;48.138;16.402;2024-02-21T15:29:35;11.90;95.80
12013;DHT22;6065;48.138;16.402;2024-02-21T15:32:02;11.90;96.00
12013;DHT22;6065;48.138;16.402;2024-02-21T15:34:30;11.90;96.20
12013;DHT22;6065;48.138;16.402;2024-02-21T15:36:57;11.90;96.30
12013;DHT22;6065;48.138;16.402;2024-02-21T15:39:24;11.90;96.40